MSC Michela — CQID5 — position and weather

sailwx.info

Track history (hours):
 
Tides and Currents Weather Stations Pressure Air Temp Water Temp Dewpoint Dewpoint Depression Visibility Wind Speed Wind Dir Waves Ship Positions

MSC Michela

Last reported at 2017-Dec-04 10:30 UTC. Time now 2017-Dec-11 17:20 UTC.
Position N 33°40' W 118°30'.

Length 300 m; draft 10.1 m.

Type: Ship (hazmat cat A). MMSI: 255805929.

Date/timePositionNaut miles runAvg speedWind from/ knotsBaromVisibWave heightAir tempDewpointWater temp
2017-Dec-04 10:30N 33°40' W 118°30'611.5
2017-Dec-04 10:01N 33°43' W 118°35'611.5
2017-Dec-04 09:30N 33°46' W 118°42'611.3
2017-Dec-04 09:01N 33°49' W 118°47'5 9.9
2017-Dec-04 08:30N 33°52' W 118°52'5 9.6
2017-Dec-04 08:00N 33°54' W 118°58'5 9.8
2017-Dec-04 07:30N 33°56' W 119°03'5 9.7
2017-Dec-04 07:00N 33°58' W 119°08'510.3
2017-Dec-04 06:30N 34°01' W 119°13'6 9.1
2017-Dec-04 05:51N 34°03' W 119°20'3 9.4
2017-Dec-04 05:30N 34°04' W 119°24'5 9.6
2017-Dec-04 04:59N 34°05' W 119°30'510.1
2017-Dec-04 04:30N 34°07' W 119°35'510.0
2017-Dec-04 03:57N 34°08' W 119°42'710.0
2017-Dec-04 03:16N 34°10' W 119°50'310.2
2017-Dec-04 03:00N 34°11' W 119°53'510.2
2017-Dec-04 02:30N 34°12' W 119°59'510.2
2017-Dec-04 02:00N 34°14' W 120°05'510.3
2017-Dec-04 01:30N 34°15' W 120°11'610.5
2017-Dec-04 00:57N 34°16' W 120°17'510.8
2017-Dec-04 00:30N 34°18' W 120°23'510.4
2017-Dec-03 23:59N 34°19' W 120°29'5 9.9
2017-Dec-03 23:30N 34°20' W 120°35'510.5
2017-Dec-03 23:00N 34°22' W 120°41'5 9.9
2017-Dec-03 22:30N 34°23' W 120°47'510.0
2017-Dec-03 22:00N 34°24' W 120°52'611.4
2017-Dec-03 21:30N 34°26' W 120°59'510.9
2017-Dec-03 21:01N 34°31' W 121°02'510.0
2017-Dec-03 20:30N 34°35' W 121°06'5 9.7
2017-Dec-03 20:00N 34°39' W 121°09'5 9.7
2017-Dec-03 19:30N 34°44' W 121°11'5 9.6
2017-Dec-03 19:00N 34°48' W 121°14'5 9.5
2017-Dec-03 18:30N 34°52' W 121°17'5 9.5
2017-Dec-03 18:00N 34°56' W 121°20'510.0
2017-Dec-03 17:30N 35°00' W 121°23'510.4
2017-Dec-03 17:00N 35°05' W 121°26'510.1
2017-Dec-03 16:30N 35°09' W 121°30'510.2
2017-Dec-03 16:00N 35°13' W 121°33'510.2
2017-Dec-03 15:30N 35°18' W 121°36'510.3
2017-Dec-03 15:00N 35°23' W 121°39'710.2
2017-Dec-03 14:22N 35°28' W 121°43'410.1
2017-Dec-03 13:57N 35°32' W 121°45'510.0
2017-Dec-03 13:30N 35°36' W 121°48'510.2
2017-Dec-03 13:00N 35°40' W 121°51'510.2
2017-Dec-03 12:30N 35°44' W 121°55'5 9.9
2017-Dec-03 12:00N 35°49' W 121°58'510.1
2017-Dec-03 11:30N 35°53' W 122°01'510.1
2017-Dec-03 11:00N 35°57' W 122°04'510.0
2017-Dec-03 10:30N 36°02' W 122°07'5 9.9
2017-Dec-03 10:00N 36°06' W 122°10'510.0
2017-Dec-03 09:30N 36°10' W 122°13'510.1
2017-Dec-03 09:00N 36°15' W 122°17'510.1
2017-Dec-03 08:30N 36°19' W 122°19'510.2
2017-Dec-03 08:00N 36°24' W 122°22'510.2
2017-Dec-03 07:30N 36°29' W 122°24'510.3
2017-Dec-03 07:00N 36°33' W 122°26'510.1
2017-Dec-03 06:30N 36°38' W 122°29'510.3
2017-Dec-03 06:00N 36°43' W 122°31'510.4
2017-Dec-03 05:30N 36°48' W 122°33'510.6
2017-Dec-03 05:00N 36°53' W 122°36'510.3
2017-Dec-03 04:30N 36°58' W 122°38'510.2
2017-Dec-03 04:00N 37°02' W 122°40'510.3
2017-Dec-03 03:30N 37°07' W 122°42'815.5
2017-Dec-03 03:01N 37°15' W 122°43'917.9
2017-Dec-03 02:31N 37°24' W 122°43'917.4
2017-Dec-03 02:01N 37°33' W 122°44'917.1
2017-Dec-03 01:31N 37°41' W 122°42'713.0
2017-Dec-03 01:00N 37°46' W 122°37'917.5
2017-Dec-03 00:30N 37°50' W 122°27'611.7
2017-Dec-03 00:00N 37°48' W 122°21'1 1.7
2017-Dec-02 23:30N 37°48' W 122°19'0 0.0
2017-Dec-02 23:00N 37°48' W 122°19'0 0.0
2017-Dec-02 22:30N 37°48' W 122°19'0 0.0
2017-Dec-02 22:00N 37°48' W 122°19'0 0.0
2017-Dec-02 21:30N 37°48' W 122°19'0 0.0
2017-Dec-02 21:00N 37°48' W 122°19'0 0.0
2017-Dec-02 20:30N 37°48' W 122°19'0 0.0
2017-Dec-02 20:00N 37°48' W 122°19'0 0.0
2017-Dec-02 19:30N 37°48' W 122°19'0 0.0
2017-Dec-02 19:00N 37°48' W 122°19'0 0.0
2017-Dec-02 18:30N 37°48' W 122°19'0 0.0
2017-Dec-02 18:00N 37°48' W 122°19'0 0.0
2017-Dec-02 17:30N 37°48' W 122°19'0 0.0
2017-Dec-02 17:00N 37°48' W 122°19'0 0.0
2017-Dec-02 16:30N 37°48' W 122°19'0 0.0
2017-Dec-02 16:00N 37°48' W 122°19'0 0.0
2017-Dec-02 15:30N 37°48' W 122°19'0 0.0
2017-Dec-02 15:00N 37°48' W 122°19'0 0.0
2017-Dec-02 14:30N 37°48' W 122°19'0 0.0
2017-Dec-02 14:00N 37°48' W 122°19'0 0.0
2017-Dec-02 13:30N 37°48' W 122°19'0 0.0
2017-Dec-02 13:00N 37°48' W 122°19'0 0.0
2017-Dec-02 12:30N 37°48' W 122°19'0 0.0
2017-Dec-02 12:00N 37°48' W 122°19'0 0.0
2017-Dec-02 11:30N 37°48' W 122°19'0 0.0
2017-Dec-02 11:00N 37°48' W 122°19'0 0.0
2017-Dec-02 10:30N 37°48' W 122°19'0 0.0
2017-Dec-02 10:00N 37°48' W 122°19'0 0.0
2017-Dec-02 09:30N 37°48' W 122°19'0 0.0
2017-Dec-02 09:00N 37°48' W 122°19'0 0.0
2017-Dec-02 08:30N 37°48' W 122°19'0 0.0
2017-Dec-02 08:00N 37°48' W 122°19'0 0.0
2017-Dec-02 07:31N 37°48' W 122°19'1 1.5
2017-Dec-02 07:00N 37°48' W 122°19'1 1.6
2017-Dec-02 06:31N 37°48' W 122°18'2 4.6
2017-Dec-02 06:01N 37°48' W 122°20'510.6
2017-Dec-02 05:30N 37°49' W 122°27'917.5
2017-Dec-02 05:00N 37°46' W 122°37'510.7
2017-Dec-02 04:30N 37°46' W 122°44'713.3
2017-Dec-02 04:00N 37°49' W 122°52'510.0
2017-Dec-02 03:30N 37°51' W 122°57'714.0
2017-Dec-02 03:00N 37°55' W 123°05'713.7
2017-Dec-02 02:30N 37°59' W 123°12'713.9
2017-Dec-02 02:00N 38°04' W 123°18'714.0
2017-Dec-02 01:30N 38°10' W 123°23'714.3
2017-Dec-02 01:00N 38°16' W 123°28'714.2
2017-Dec-02 00:30N 38°22' W 123°32'714.2
2017-Dec-02 00:00N 38°29' W 123°36'714.7
2017-Dec-01 23:30N 38°35' W 123°41'714.6
2017-Dec-01 23:00N 38°42' W 123°45'714.4
2017-Dec-01 22:30N 38°48' W 123°49'37115.9
2017-Nov-30 23:14N 44°56' W 124°51'417.4
2017-Nov-30 23:01N 44°60' W 124°52'917.3
2017-Nov-30 22:30N 45°08' W 124°54'917.2
2017-Nov-30 22:00N 45°17' W 124°55'917.2
2017-Nov-30 21:30N 45°26' W 124°57'917.4
2017-Nov-30 21:00N 45°34' W 124°59'917.8
2017-Nov-30 20:31N 45°43' W 125°01'917.8
2017-Nov-30 20:01N 45°52' W 125°02'918.0
2017-Nov-30 19:30N 46°01' W 125°05'816.8
2017-Nov-30 19:01N 46°09' W 125°08'816.7
2017-Nov-30 18:30N 46°17' W 125°10'917.3
2017-Nov-30 18:00N 46°25' W 125°13'917.3
2017-Nov-30 17:31N 46°34' W 125°16'815.5
2017-Nov-30 17:01N 46°41' W 125°14'815.7
2017-Nov-30 16:30N 46°48' W 125°08'815.2
2017-Nov-30 16:00N 46°55' W 125°04'816.7
2017-Nov-30 15:31N 47°03' W 125°06'816.4
2017-Nov-30 15:00N 47°11' W 125°08'4616.0
2017-Nov-30 12:08N 47°57' W 125°15'216.8
2017-Nov-30 12:00N 47°59' W 125°15'816.9
2017-Nov-30 11:30N 48°08' W 125°16'816.7
2017-Nov-30 11:00N 48°16' W 125°16'713.9
2017-Nov-30 10:30N 48°23' W 125°13'714.3
2017-Nov-30 10:00N 48°28' W 125°06'713.9
2017-Nov-30 09:31N 48°31' W 124°56'714.4
2017-Nov-30 09:00N 48°31' W 124°45'612.7
2017-Nov-30 08:31N 48°29' W 124°36'613.0
2017-Nov-30 08:01N 48°26' W 124°27'611.5
2017-Nov-30 07:31N 48°24' W 124°19'611.7
2017-Nov-30 07:00N 48°22' W 124°11'612.5
2017-Nov-30 06:31N 48°19' W 124°03'612.3
2017-Nov-30 06:00N 48°17' W 123°54'611.9
2017-Nov-30 05:30N 48°16' W 123°45'611.1
2017-Nov-30 05:00N 48°16' W 123°37'611.8
2017-Nov-30 04:30N 48°15' W 123°28'610.9
2017-Nov-30 04:00N 48°10' W 123°23'4 8.2
2017-Nov-30 03:30N 48°10' W 123°17'1120.5
2017-Nov-30 02:58N 48°12' W 123°00'1022.1
2017-Nov-30 02:30N 48°11' W 122°46'1222.9
2017-Nov-30 02:00N 48°01' W 122°36'1021.3
2017-Nov-30 01:30N 47°52' W 122°28'1121.2
2017-Nov-30 01:00N 47°41' W 122°27'714.1
2017-Nov-30 00:30N 47°36' W 122°21'0 0.4
2017-Nov-30 00:00N 47°36' W 122°21'0 0.0
2017-Nov-29 23:29N 47°36' W 122°21'0 0.0
2017-Nov-29 23:00N 47°36' W 122°21'0 0.0
2017-Nov-29 22:30N 47°36' W 122°21'0 0.0
2017-Nov-29 22:00N 47°36' W 122°21'0 0.0
2017-Nov-29 21:30N 47°36' W 122°21'0 0.0
2017-Nov-29 20:59N 47°36' W 122°21'0 0.0
2017-Nov-29 20:30N 47°36' W 122°21'0 0.0
2017-Nov-29 20:00N 47°36' W 122°21'0 0.0
2017-Nov-29 19:30N 47°36' W 122°21'0 0.0
2017-Nov-29 19:00N 47°36' W 122°21'0 0.0
2017-Nov-29 18:30N 47°36' W 122°21'0 0.0
2017-Nov-29 18:00N 47°36' W 122°21'0 0.0
2017-Nov-29 17:29N 47°36' W 122°21'0 0.0
2017-Nov-29 17:00N 47°36' W 122°21'0 0.0
2017-Nov-29 16:30N 47°36' W 122°21'0 0.0
2017-Nov-29 16:00N 47°36' W 122°21'0 0.0
2017-Nov-29 15:29N 47°36' W 122°21'0 0.0
2017-Nov-29 15:00N 47°36' W 122°21'0 0.0
2017-Nov-29 14:30N 47°36' W 122°21'0 0.0
2017-Nov-29 14:00N 47°36' W 122°21'0 0.0
2017-Nov-29 13:30N 47°36' W 122°21'0 0.0
2017-Nov-29 12:59N 47°36' W 122°21'0 0.0
2017-Nov-29 12:28N 47°36' W 122°21'0 0.0
2017-Nov-29 12:00N 47°36' W 122°21'0 0.0
2017-Nov-29 11:29N 47°36' W 122°21'0 0.0
2017-Nov-29 10:56N 47°36' W 122°21'0 0.0
2017-Nov-29 10:30N 47°36' W 122°21'0 0.0
2017-Nov-29 10:00N 47°36' W 122°21'0 0.0
2017-Nov-29 09:30N 47°36' W 122°21'0 0.0
2017-Nov-29 09:00N 47°36' W 122°21'0 0.0
2017-Nov-29 08:29N 47°36' W 122°21'0 0.0
2017-Nov-29 07:59N 47°36' W 122°21'0 0.0
2017-Nov-29 07:30N 47°36' W 122°21'0 0.0
2017-Nov-29 07:00N 47°36' W 122°21'0 0.0
2017-Nov-29 06:29N 47°36' W 122°21'0 0.0
2017-Nov-29 06:00N 47°36' W 122°21'0 0.0
2017-Nov-29 05:29N 47°36' W 122°21'0 0.0
2017-Nov-29 05:00N 47°36' W 122°21'0 0.0
2017-Nov-29 04:30N 47°36' W 122°21'0 0.0
2017-Nov-29 03:59N 47°36' W 122°21'0 0.0
2017-Nov-29 03:30N 47°36' W 122°21'0 0.0
2017-Nov-29 02:59N 47°36' W 122°21'0 0.0
2017-Nov-29 02:26N 47°36' W 122°21'0 0.0
2017-Nov-29 01:59N 47°36' W 122°21'0 0.0
2017-Nov-29 01:30N 47°36' W 122°21'0 0.0
2017-Nov-29 00:59N 47°36' W 122°21'0 0.0
2017-Nov-29 00:30N 47°36' W 122°21'0 0.0
2017-Nov-28 23:59N 47°36' W 122°21'0 0.0
2017-Nov-28 23:30N 47°36' W 122°21'0 0.0
2017-Nov-28 22:56N 47°36' W 122°21'0 0.0
2017-Nov-28 22:29N 47°36' W 122°21'0 0.0
2017-Nov-28 21:59N 47°36' W 122°21'0 0.0
2017-Nov-28 21:30N 47°36' W 122°21'0 0.0
2017-Nov-28 20:59N 47°36' W 122°21'0 0.0
2017-Nov-28 20:30N 47°36' W 122°21'0 0.0
2017-Nov-28 20:00N 47°36' W 122°21'0 0.0
2017-Nov-28 19:30N 47°36' W 122°21'0 0.0
2017-Nov-28 19:00N 47°36' W 122°21'0 0.0
2017-Nov-28 18:29N 47°36' W 122°21'0 0.1
2017-Nov-28 18:00N 47°36' W 122°21'1 2.3
2017-Nov-28 17:31N 47°36' W 122°22'611.6
2017-Nov-28 17:01N 47°40' W 122°28'918.8
2017-Nov-28 16:31N 47°50' W 122°28'918.9
2017-Nov-28 16:01N 47°58' W 122°35'1817.8
2017-Nov-28 15:00N 48°11' W 122°53'1020.2
2017-Nov-28 14:30N 48°12' W 123°08'1020.6
2017-Nov-28 14:00N 48°10' W 123°23'510.6
2017-Nov-28 13:30N 48°13' W 123°30'817.0
2017-Nov-28 13:00N 48°21' W 123°26'5 9.9
2017-Nov-28 12:30N 48°23' W 123°19'816.7
2017-Nov-28 12:00N 48°30' W 123°13'1020.0
2017-Nov-28 11:30N 48°40' W 123°15'918.8
2017-Nov-28 11:00N 48°46' W 123°04'917.0
2017-Nov-28 10:30N 48°54' W 123°03'815.2
2017-Nov-28 10:00N 49°00' W 123°10'1 2.7
2017-Nov-28 09:31N 49°01' W 123°09'0 0.1
2017-Nov-28 09:00N 49°01' W 123°09'0 0.0
2017-Nov-28 08:30N 49°01' W 123°09'0 0.0
2017-Nov-28 08:00N 49°01' W 123°09'0 0.0
2017-Nov-28 07:27N 49°01' W 123°09'0 0.0
2017-Nov-28 07:00N 49°01' W 123°09'0 0.0
2017-Nov-28 06:30N 49°01' W 123°09'0 0.0
2017-Nov-28 06:00N 49°01' W 123°09'0 0.0
2017-Nov-28 05:27N 49°01' W 123°09'0 0.0
2017-Nov-28 04:27N 49°01' W 123°09'0 0.0
2017-Nov-28 03:03N 49°01' W 123°09'0 0.0
2017-Nov-28 02:51N 49°01' W 123°09'0 0.0
2017-Nov-28 02:30N 49°01' W 123°09'0 0.0
2017-Nov-28 01:54N 49°01' W 123°09'0 0.0
2017-Nov-28 01:30N 49°01' W 123°09'0 0.0
2017-Nov-28 01:00N 49°01' W 123°09'0 0.0
2017-Nov-28 00:30N 49°01' W 123°09'0 0.0
2017-Nov-27 23:57N 49°01' W 123°09'0 0.0
2017-Nov-27 23:30N 49°01' W 123°09'0 0.0
2017-Nov-27 23:00N 49°01' W 123°09'0 0.0
2017-Nov-27 22:30N 49°01' W 123°09'0 0.0
2017-Nov-27 22:00N 49°01' W 123°09'0 0.0
2017-Nov-27 21:30N 49°01' W 123°09'0 0.0
2017-Nov-27 21:00N 49°01' W 123°09'0 0.0
2017-Nov-27 20:30N 49°01' W 123°09'0 0.0
2017-Nov-27 20:00N 49°01' W 123°09'0 0.0
2017-Nov-27 19:30N 49°01' W 123°09'0 0.0
2017-Nov-27 19:00N 49°01' W 123°09'0 0.0
2017-Nov-27 18:30N 49°01' W 123°09'0 0.0
2017-Nov-27 18:00N 49°01' W 123°09'0 0.0
2017-Nov-27 17:30N 49°01' W 123°09'0 0.0
2017-Nov-27 17:00N 49°01' W 123°09'0 0.0
2017-Nov-27 16:30N 49°01' W 123°09'0 0.0
2017-Nov-27 16:00N 49°01' W 123°09'0 0.0
2017-Nov-27 15:30N 49°01' W 123°09'0 0.0
2017-Nov-27 15:00N 49°01' W 123°09'0 0.0
2017-Nov-27 14:18N 49°01' W 123°09'0 0.0
2017-Nov-27 14:00N 49°01' W 123°09'0 0.0
2017-Nov-27 13:30N 49°01' W 123°09'0 0.0
2017-Nov-27 13:00N 49°01' W 123°09'0 0.0
2017-Nov-27 12:30N 49°01' W 123°09'0 0.0
2017-Nov-27 11:57N 49°01' W 123°09'0 0.0
2017-Nov-27 11:05N 49°01' W 123°09'0 0.0
2017-Nov-27 11:00N 49°01' W 123°09'0 0.0
2017-Nov-27 10:30N 49°01' W 123°09'0 0.0
2017-Nov-27 10:00N 49°01' W 123°09'0 0.0
2017-Nov-27 09:30N 49°01' W 123°09'0 0.0
2017-Nov-27 09:00N 49°01' W 123°09'1 2.2
2017-Nov-27 08:30N 49°00' W 123°10'1 2.6
2017-Nov-27 08:00N 48°59' W 123°10'1 2.1
2017-Nov-27 07:30N 48°58' W 123°10'1 2.3
2017-Nov-27 06:59N 48°57' W 123°09'510.7
2017-Nov-27 06:30N 48°53' W 123°04'713.4
2017-Nov-27 06:00N 48°47' W 123°01'917.5
2017-Nov-27 05:30N 48°43' W 123°13'815.9
2017-Nov-27 05:00N 48°35' W 123°13'917.5
2017-Nov-27 04:30N 48°26' W 123°10'816.8
2017-Nov-27 04:00N 48°22' W 123°21'5 9.3
2017-Nov-27 03:30N 48°18' W 123°25'4 8.6
2017-Nov-27 03:00N 48°15' W 123°29'816.1
2017-Nov-27 02:30N 48°13' W 123°41'917.5
2017-Nov-27 02:00N 48°13' W 123°54'816.4
2017-Nov-27 01:30N 48°16' W 124°06'816.0
2017-Nov-27 01:00N 48°20' W 124°16'816.1
2017-Nov-27 00:30N 48°24' W 124°27'816.1
2017-Nov-27 00:00N 48°27' W 124°38'816.5
2017-Nov-26 23:30N 48°29' W 124°50'816.6
2017-Nov-26 23:00N 48°25' W 125°02'918.3
2017-Nov-26 22:30N 48°17' W 125°07'918.7
2017-Nov-26 22:00N 48°08' W 125°12'6916.5
2017-Nov-26 17:50N 46°59' W 125°07'616.5
2017-Nov-26 17:30N 46°54' W 125°04'917.6
2017-Nov-26 17:00N 46°45' W 125°04'1020.0
2017-Nov-26 16:30N 46°36' W 125°09'1019.7
2017-Nov-26 16:00N 46°26' W 125°13'1019.6
2017-Nov-26 15:30N 46°17' W 125°17'1019.2
2017-Nov-26 15:01N 46°08' W 125°21'918.3
2017-Nov-26 14:30N 45°59' W 125°20'918.2
2017-Nov-26 14:00N 45°50' W 125°17'918.3
2017-Nov-26 13:30N 45°41' W 125°15'918.8
2017-Nov-26 13:00N 45°32' W 125°13'1529.6
2017-Nov-26 12:30N 45°17' W 125°10'5 9.6
2017-Nov-26 11:58N 45°12' W 125°10'38821.0
2017-Nov-25 17:27N 38°48' W 123°49'920.8
2017-Nov-25 17:00N 38°40' W 123°43'1120.8
2017-Nov-25 16:29N 38°31' W 123°36'1020.8
2017-Nov-25 16:00N 38°22' W 123°30'1020.7
2017-Nov-25 15:30N 38°13' W 123°23'1020.5
2017-Nov-25 15:00N 38°05' W 123°15'1019.9
2017-Nov-25 14:30N 37°58' W 123°07'1020.1
2017-Nov-25 14:00N 37°53' W 122°56'1020.4
2017-Nov-25 13:30N 37°47' W 122°45'5 9.9
2017-Nov-25 13:00N 37°46' W 122°39'815.5
2017-Nov-25 12:30N 37°49' W 122°30'611.5
2017-Nov-25 12:00N 37°48' W 122°22'3 6.0
2017-Nov-25 11:30N 37°48' W 122°19'0 0.0
2017-Nov-25 10:59N 37°48' W 122°19'0 0.0
2017-Nov-25 10:29N 37°48' W 122°19'0 0.0
2017-Nov-25 09:59N 37°48' W 122°19'0 0.0
2017-Nov-25 09:29N 37°48' W 122°19'0 0.0
2017-Nov-25 08:59N 37°48' W 122°19'0 0.0
2017-Nov-25 08:29N 37°48' W 122°19'0 0.0
2017-Nov-25 07:59N 37°48' W 122°19'0 0.0
2017-Nov-25 07:29N 37°48' W 122°19'0 0.0
2017-Nov-25 06:59N 37°48' W 122°19'0 0.0
2017-Nov-25 06:29N 37°48' W 122°19'0 0.0
2017-Nov-25 05:59N 37°48' W 122°19'0 0.0
2017-Nov-25 05:29N 37°48' W 122°19'0 0.0
2017-Nov-25 04:59N 37°48' W 122°19'0 0.0
2017-Nov-25 04:29N 37°48' W 122°19'0 0.0
2017-Nov-25 03:59N 37°48' W 122°19'0 0.0
2017-Nov-25 03:29N 37°48' W 122°19'0 0.0
2017-Nov-25 02:59N 37°48' W 122°19'0 0.0
2017-Nov-25 02:29N 37°48' W 122°19'0 0.0
2017-Nov-25 01:59N 37°48' W 122°19'0 0.0
2017-Nov-25 01:29N 37°48' W 122°19'0 0.0
2017-Nov-25 00:59N 37°48' W 122°19'0 0.0
2017-Nov-25 00:29N 37°48' W 122°19'0 0.0
2017-Nov-24 23:59N 37°48' W 122°19'0 0.0
2017-Nov-24 23:29N 37°48' W 122°19'0 0.0
2017-Nov-24 22:59N 37°48' W 122°19'0 0.0
2017-Nov-24 22:29N 37°48' W 122°19'0 0.0
2017-Nov-24 21:59N 37°48' W 122°19'0 0.0
2017-Nov-24 21:29N 37°48' W 122°19'0 0.0
2017-Nov-24 20:59N 37°48' W 122°19'0 0.0
2017-Nov-24 20:29N 37°48' W 122°19'0 0.0
2017-Nov-24 19:59N 37°48' W 122°19'0 0.0
2017-Nov-24 19:29N 37°48' W 122°19'0 0.0
2017-Nov-24 18:59N 37°48' W 122°19'0 0.0
2017-Nov-24 18:29N 37°48' W 122°19'0 0.0
2017-Nov-24 17:59N 37°48' W 122°19'0 0.0
2017-Nov-24 17:29N 37°48' W 122°19'0 0.0
2017-Nov-24 16:59N 37°48' W 122°19'0 0.0
2017-Nov-24 16:29N 37°48' W 122°19'0 0.0
2017-Nov-24 15:59N 37°48' W 122°19'0 0.0
2017-Nov-24 15:29N 37°48' W 122°19'0 0.0
2017-Nov-24 14:59N 37°48' W 122°19'0 0.0
2017-Nov-24 14:29N 37°48' W 122°19'0 0.0
2017-Nov-24 13:59N 37°48' W 122°19'0 0.0
2017-Nov-24 13:29N 37°48' W 122°19'0 0.0
2017-Nov-24 12:59N 37°48' W 122°19'0 0.0
2017-Nov-24 12:29N 37°48' W 122°19'0 0.0
2017-Nov-24 11:59N 37°48' W 122°19'0 0.0
2017-Nov-24 11:29N 37°48' W 122°19'0 0.0
2017-Nov-24 10:59N 37°48' W 122°19'  
Track history (hours):
 
Tides and Currents Weather Stations Pressure Air Temp Water Temp Dewpoint Dewpoint Depression Visibility Wind Speed Wind Dir Waves Ship Positions

MSC Michela

Last reported at 2017-Dec-04 10:30 UTC. Time now 2017-Dec-11 17:20 UTC.
Position N 33°40' W 118°30'.

Length 300 m; draft 10.1 m.

Type: Ship (hazmat cat A). MMSI: 255805929.

Date/timePositionNaut miles runAvg speedWind from/ knotsBaromVisibWave heightAir tempDewpointWater temp
2017-Dec-04 10:30N 33°40' W 118°30'611.5
2017-Dec-04 10:01N 33°43' W 118°35'611.5
2017-Dec-04 09:30N 33°46' W 118°42'611.3
2017-Dec-04 09:01N 33°49' W 118°47'5 9.9
2017-Dec-04 08:30N 33°52' W 118°52'5 9.6
2017-Dec-04 08:00N 33°54' W 118°58'5 9.8
2017-Dec-04 07:30N 33°56' W 119°03'5 9.7
2017-Dec-04 07:00N 33°58' W 119°08'510.3
2017-Dec-04 06:30N 34°01' W 119°13'6 9.1
2017-Dec-04 05:51N 34°03' W 119°20'3 9.4
2017-Dec-04 05:30N 34°04' W 119°24'5 9.6
2017-Dec-04 04:59N 34°05' W 119°30'510.1
2017-Dec-04 04:30N 34°07' W 119°35'510.0
2017-Dec-04 03:57N 34°08' W 119°42'710.0
2017-Dec-04 03:16N 34°10' W 119°50'310.2
2017-Dec-04 03:00N 34°11' W 119°53'510.2
2017-Dec-04 02:30N 34°12' W 119°59'510.2
2017-Dec-04 02:00N 34°14' W 120°05'510.3
2017-Dec-04 01:30N 34°15' W 120°11'610.5
2017-Dec-04 00:57N 34°16' W 120°17'510.8
2017-Dec-04 00:30N 34°18' W 120°23'510.4
2017-Dec-03 23:59N 34°19' W 120°29'5 9.9
2017-Dec-03 23:30N 34°20' W 120°35'510.5
2017-Dec-03 23:00N 34°22' W 120°41'5 9.9
2017-Dec-03 22:30N 34°23' W 120°47'510.0
2017-Dec-03 22:00N 34°24' W 120°52'611.4
2017-Dec-03 21:30N 34°26' W 120°59'510.9
2017-Dec-03 21:01N 34°31' W 121°02'510.0
2017-Dec-03 20:30N 34°35' W 121°06'5 9.7
2017-Dec-03 20:00N 34°39' W 121°09'5 9.7
2017-Dec-03 19:30N 34°44' W 121°11'5 9.6
2017-Dec-03 19:00N 34°48' W 121°14'5 9.5
2017-Dec-03 18:30N 34°52' W 121°17'5 9.5
2017-Dec-03 18:00N 34°56' W 121°20'510.0
2017-Dec-03 17:30N 35°00' W 121°23'510.4
2017-Dec-03 17:00N 35°05' W 121°26'510.1
2017-Dec-03 16:30N 35°09' W 121°30'510.2
2017-Dec-03 16:00N 35°13' W 121°33'510.2
2017-Dec-03 15:30N 35°18' W 121°36'510.3
2017-Dec-03 15:00N 35°23' W 121°39'710.2
2017-Dec-03 14:22N 35°28' W 121°43'410.1
2017-Dec-03 13:57N 35°32' W 121°45'510.0
2017-Dec-03 13:30N 35°36' W 121°48'510.2
2017-Dec-03 13:00N 35°40' W 121°51'510.2
2017-Dec-03 12:30N 35°44' W 121°55'5 9.9
2017-Dec-03 12:00N 35°49' W 121°58'510.1
2017-Dec-03 11:30N 35°53' W 122°01'510.1
2017-Dec-03 11:00N 35°57' W 122°04'510.0
2017-Dec-03 10:30N 36°02' W 122°07'5 9.9
2017-Dec-03 10:00N 36°06' W 122°10'510.0
2017-Dec-03 09:30N 36°10' W 122°13'510.1
2017-Dec-03 09:00N 36°15' W 122°17'510.1
2017-Dec-03 08:30N 36°19' W 122°19'510.2
2017-Dec-03 08:00N 36°24' W 122°22'510.2
2017-Dec-03 07:30N 36°29' W 122°24'510.3
2017-Dec-03 07:00N 36°33' W 122°26'510.1
2017-Dec-03 06:30N 36°38' W 122°29'510.3
2017-Dec-03 06:00N 36°43' W 122°31'510.4
2017-Dec-03 05:30N 36°48' W 122°33'510.6
2017-Dec-03 05:00N 36°53' W 122°36'510.3
2017-Dec-03 04:30N 36°58' W 122°38'510.2
2017-Dec-03 04:00N 37°02' W 122°40'510.3
2017-Dec-03 03:30N 37°07' W 122°42'815.5
2017-Dec-03 03:01N 37°15' W 122°43'917.9
2017-Dec-03 02:31N 37°24' W 122°43'917.4
2017-Dec-03 02:01N 37°33' W 122°44'917.1
2017-Dec-03 01:31N 37°41' W 122°42'713.0
2017-Dec-03 01:00N 37°46' W 122°37'917.5
2017-Dec-03 00:30N 37°50' W 122°27'611.7
2017-Dec-03 00:00N 37°48' W 122°21'1 1.7
2017-Dec-02 23:30N 37°48' W 122°19'0 0.0
2017-Dec-02 23:00N 37°48' W 122°19'0 0.0
2017-Dec-02 22:30N 37°48' W 122°19'0 0.0
2017-Dec-02 22:00N 37°48' W 122°19'0 0.0
2017-Dec-02 21:30N 37°48' W 122°19'0 0.0
2017-Dec-02 21:00N 37°48' W 122°19'0 0.0
2017-Dec-02 20:30N 37°48' W 122°19'0 0.0
2017-Dec-02 20:00N 37°48' W 122°19'0 0.0
2017-Dec-02 19:30N 37°48' W 122°19'0 0.0
2017-Dec-02 19:00N 37°48' W 122°19'0 0.0
2017-Dec-02 18:30N 37°48' W 122°19'0 0.0
2017-Dec-02 18:00N 37°48' W 122°19'0 0.0
2017-Dec-02 17:30N 37°48' W 122°19'0 0.0
2017-Dec-02 17:00N 37°48' W 122°19'0 0.0
2017-Dec-02 16:30N 37°48' W 122°19'0 0.0
2017-Dec-02 16:00N 37°48' W 122°19'0 0.0
2017-Dec-02 15:30N 37°48' W 122°19'0 0.0
2017-Dec-02 15:00N 37°48' W 122°19'0 0.0
2017-Dec-02 14:30N 37°48' W 122°19'0 0.0
2017-Dec-02 14:00N 37°48' W 122°19'0 0.0
2017-Dec-02 13:30N 37°48' W 122°19'0 0.0
2017-Dec-02 13:00N 37°48' W 122°19'0 0.0
2017-Dec-02 12:30N 37°48' W 122°19'0 0.0
2017-Dec-02 12:00N 37°48' W 122°19'0 0.0
2017-Dec-02 11:30N 37°48' W 122°19'0 0.0
2017-Dec-02 11:00N 37°48' W 122°19'0 0.0
2017-Dec-02 10:30N 37°48' W 122°19'0 0.0
2017-Dec-02 10:00N 37°48' W 122°19'0 0.0
2017-Dec-02 09:30N 37°48' W 122°19'0 0.0
2017-Dec-02 09:00N 37°48' W 122°19'0 0.0
2017-Dec-02 08:30N 37°48' W 122°19'0 0.0
2017-Dec-02 08:00N 37°48' W 122°19'0 0.0
2017-Dec-02 07:31N 37°48' W 122°19'1 1.5
2017-Dec-02 07:00N 37°48' W 122°19'1 1.6
2017-Dec-02 06:31N 37°48' W 122°18'2 4.6
2017-Dec-02 06:01N 37°48' W 122°20'510.6
2017-Dec-02 05:30N 37°49' W 122°27'917.5
2017-Dec-02 05:00N 37°46' W 122°37'510.7
2017-Dec-02 04:30N 37°46' W 122°44'713.3
2017-Dec-02 04:00N 37°49' W 122°52'510.0
2017-Dec-02 03:30N 37°51' W 122°57'714.0
2017-Dec-02 03:00N 37°55' W 123°05'713.7
2017-Dec-02 02:30N 37°59' W 123°12'713.9
2017-Dec-02 02:00N 38°04' W 123°18'714.0
2017-Dec-02 01:30N 38°10' W 123°23'714.3
2017-Dec-02 01:00N 38°16' W 123°28'714.2
2017-Dec-02 00:30N 38°22' W 123°32'714.2
2017-Dec-02 00:00N 38°29' W 123°36'714.7
2017-Dec-01 23:30N 38°35' W 123°41'714.6
2017-Dec-01 23:00N 38°42' W 123°45'714.4
2017-Dec-01 22:30N 38°48' W 123°49'37115.9
2017-Nov-30 23:14N 44°56' W 124°51'417.4
2017-Nov-30 23:01N 44°60' W 124°52'917.3
2017-Nov-30 22:30N 45°08' W 124°54'917.2
2017-Nov-30 22:00N 45°17' W 124°55'917.2
2017-Nov-30 21:30N 45°26' W 124°57'917.4
2017-Nov-30 21:00N 45°34' W 124°59'917.8
2017-Nov-30 20:31N 45°43' W 125°01'917.8
2017-Nov-30 20:01N 45°52' W 125°02'918.0
2017-Nov-30 19:30N 46°01' W 125°05'816.8
2017-Nov-30 19:01N 46°09' W 125°08'816.7
2017-Nov-30 18:30N 46°17' W 125°10'917.3
2017-Nov-30 18:00N 46°25' W 125°13'917.3
2017-Nov-30 17:31N 46°34' W 125°16'815.5
2017-Nov-30 17:01N 46°41' W 125°14'815.7
2017-Nov-30 16:30N 46°48' W 125°08'815.2
2017-Nov-30 16:00N 46°55' W 125°04'816.7
2017-Nov-30 15:31N 47°03' W 125°06'816.4
2017-Nov-30 15:00N 47°11' W 125°08'4616.0
2017-Nov-30 12:08N 47°57' W 125°15'216.8
2017-Nov-30 12:00N 47°59' W 125°15'816.9
2017-Nov-30 11:30N 48°08' W 125°16'816.7
2017-Nov-30 11:00N 48°16' W 125°16'713.9
2017-Nov-30 10:30N 48°23' W 125°13'714.3
2017-Nov-30 10:00N 48°28' W 125°06'713.9
2017-Nov-30 09:31N 48°31' W 124°56'714.4
2017-Nov-30 09:00N 48°31' W 124°45'612.7
2017-Nov-30 08:31N 48°29' W 124°36'613.0
2017-Nov-30 08:01N 48°26' W 124°27'611.5
2017-Nov-30 07:31N 48°24' W 124°19'611.7
2017-Nov-30 07:00N 48°22' W 124°11'612.5
2017-Nov-30 06:31N 48°19' W 124°03'612.3
2017-Nov-30 06:00N 48°17' W 123°54'611.9
2017-Nov-30 05:30N 48°16' W 123°45'611.1
2017-Nov-30 05:00N 48°16' W 123°37'611.8
2017-Nov-30 04:30N 48°15' W 123°28'610.9
2017-Nov-30 04:00N 48°10' W 123°23'4 8.2
2017-Nov-30 03:30N 48°10' W 123°17'1120.5
2017-Nov-30 02:58N 48°12' W 123°00'1022.1
2017-Nov-30 02:30N 48°11' W 122°46'1222.9
2017-Nov-30 02:00N 48°01' W 122°36'1021.3
2017-Nov-30 01:30N 47°52' W 122°28'1121.2
2017-Nov-30 01:00N 47°41' W 122°27'714.1
2017-Nov-30 00:30N 47°36' W 122°21'0 0.4
2017-Nov-30 00:00N 47°36' W 122°21'0 0.0
2017-Nov-29 23:29N 47°36' W 122°21'0 0.0
2017-Nov-29 23:00N 47°36' W 122°21'0 0.0
2017-Nov-29 22:30N 47°36' W 122°21'0 0.0
2017-Nov-29 22:00N 47°36' W 122°21'0 0.0
2017-Nov-29 21:30N 47°36' W 122°21'0 0.0
2017-Nov-29 20:59N 47°36' W 122°21'0 0.0
2017-Nov-29 20:30N 47°36' W 122°21'0 0.0
2017-Nov-29 20:00N 47°36' W 122°21'0 0.0
2017-Nov-29 19:30N 47°36' W 122°21'0 0.0
2017-Nov-29 19:00N 47°36' W 122°21'0 0.0
2017-Nov-29 18:30N 47°36' W 122°21'0 0.0
2017-Nov-29 18:00N 47°36' W 122°21'0 0.0
2017-Nov-29 17:29N 47°36' W 122°21'0 0.0
2017-Nov-29 17:00N 47°36' W 122°21'0 0.0
2017-Nov-29 16:30N 47°36' W 122°21'0 0.0
2017-Nov-29 16:00N 47°36' W 122°21'0 0.0
2017-Nov-29 15:29N 47°36' W 122°21'0 0.0
2017-Nov-29 15:00N 47°36' W 122°21'0 0.0
2017-Nov-29 14:30N 47°36' W 122°21'0 0.0
2017-Nov-29 14:00N 47°36' W 122°21'0 0.0
2017-Nov-29 13:30N 47°36' W 122°21'0 0.0
2017-Nov-29 12:59N 47°36' W 122°21'0 0.0
2017-Nov-29 12:28N 47°36' W 122°21'0 0.0
2017-Nov-29 12:00N 47°36' W 122°21'0 0.0
2017-Nov-29 11:29N 47°36' W 122°21'0 0.0
2017-Nov-29 10:56N 47°36' W 122°21'0 0.0
2017-Nov-29 10:30N 47°36' W 122°21'0 0.0
2017-Nov-29 10:00N 47°36' W 122°21'0 0.0
2017-Nov-29 09:30N 47°36' W 122°21'0 0.0
2017-Nov-29 09:00N 47°36' W 122°21'0 0.0
2017-Nov-29 08:29N 47°36' W 122°21'0 0.0
2017-Nov-29 07:59N 47°36' W 122°21'0 0.0
2017-Nov-29 07:30N 47°36' W 122°21'0 0.0
2017-Nov-29 07:00N 47°36' W 122°21'0 0.0
2017-Nov-29 06:29N 47°36' W 122°21'0 0.0
2017-Nov-29 06:00N 47°36' W 122°21'0 0.0
2017-Nov-29 05:29N 47°36' W 122°21'0 0.0
2017-Nov-29 05:00N 47°36' W 122°21'0 0.0
2017-Nov-29 04:30N 47°36' W 122°21'0 0.0
2017-Nov-29 03:59N 47°36' W 122°21'0 0.0
2017-Nov-29 03:30N 47°36' W 122°21'0 0.0
2017-Nov-29 02:59N 47°36' W 122°21'0 0.0
2017-Nov-29 02:26N 47°36' W 122°21'0 0.0
2017-Nov-29 01:59N 47°36' W 122°21'0 0.0
2017-Nov-29 01:30N 47°36' W 122°21'0 0.0
2017-Nov-29 00:59N 47°36' W 122°21'0 0.0
2017-Nov-29 00:30N 47°36' W 122°21'0 0.0
2017-Nov-28 23:59N 47°36' W 122°21'0 0.0
2017-Nov-28 23:30N 47°36' W 122°21'0 0.0
2017-Nov-28 22:56N 47°36' W 122°21'0 0.0
2017-Nov-28 22:29N 47°36' W 122°21'0 0.0
2017-Nov-28 21:59N 47°36' W 122°21'0 0.0
2017-Nov-28 21:30N 47°36' W 122°21'0 0.0
2017-Nov-28 20:59N 47°36' W 122°21'0 0.0
2017-Nov-28 20:30N 47°36' W 122°21'0 0.0
2017-Nov-28 20:00N 47°36' W 122°21'0 0.0
2017-Nov-28 19:30N 47°36' W 122°21'0 0.0
2017-Nov-28 19:00N 47°36' W 122°21'0 0.0
2017-Nov-28 18:29N 47°36' W 122°21'0 0.1
2017-Nov-28 18:00N 47°36' W 122°21'1 2.3
2017-Nov-28 17:31N 47°36' W 122°22'611.6
2017-Nov-28 17:01N 47°40' W 122°28'918.8
2017-Nov-28 16:31N 47°50' W 122°28'918.9
2017-Nov-28 16:01N 47°58' W 122°35'1817.8
2017-Nov-28 15:00N 48°11' W 122°53'1020.2
2017-Nov-28 14:30N 48°12' W 123°08'1020.6
2017-Nov-28 14:00N 48°10' W 123°23'510.6
2017-Nov-28 13:30N 48°13' W 123°30'817.0
2017-Nov-28 13:00N 48°21' W 123°26'5 9.9
2017-Nov-28 12:30N 48°23' W 123°19'816.7
2017-Nov-28 12:00N 48°30' W 123°13'1020.0
2017-Nov-28 11:30N 48°40' W 123°15'918.8
2017-Nov-28 11:00N 48°46' W 123°04'917.0
2017-Nov-28 10:30N 48°54' W 123°03'815.2
2017-Nov-28 10:00N 49°00' W 123°10'1 2.7
2017-Nov-28 09:31N 49°01' W 123°09'0 0.1
2017-Nov-28 09:00N 49°01' W 123°09'0 0.0
2017-Nov-28 08:30N 49°01' W 123°09'0 0.0
2017-Nov-28 08:00N 49°01' W 123°09'0 0.0
2017-Nov-28 07:27N 49°01' W 123°09'0 0.0
2017-Nov-28 07:00N 49°01' W 123°09'0 0.0
2017-Nov-28 06:30N 49°01' W 123°09'0 0.0
2017-Nov-28 06:00N 49°01' W 123°09'0 0.0
2017-Nov-28 05:27N 49°01' W 123°09'0 0.0
2017-Nov-28 04:27N 49°01' W 123°09'0 0.0
2017-Nov-28 03:03N 49°01' W 123°09'0 0.0
2017-Nov-28 02:51N 49°01' W 123°09'0 0.0
2017-Nov-28 02:30N 49°01' W 123°09'0 0.0
2017-Nov-28 01:54N 49°01' W 123°09'0 0.0
2017-Nov-28 01:30N 49°01' W 123°09'0 0.0
2017-Nov-28 01:00N 49°01' W 123°09'0 0.0
2017-Nov-28 00:30N 49°01' W 123°09'0 0.0
2017-Nov-27 23:57N 49°01' W 123°09'0 0.0
2017-Nov-27 23:30N 49°01' W 123°09'0 0.0
2017-Nov-27 23:00N 49°01' W 123°09'0 0.0
2017-Nov-27 22:30N 49°01' W 123°09'0 0.0
2017-Nov-27 22:00N 49°01' W 123°09'0 0.0
2017-Nov-27 21:30N 49°01' W 123°09'0 0.0
2017-Nov-27 21:00N 49°01' W 123°09'0 0.0
2017-Nov-27 20:30N 49°01' W 123°09'0 0.0
2017-Nov-27 20:00N 49°01' W 123°09'0 0.0
2017-Nov-27 19:30N 49°01' W 123°09'0 0.0
2017-Nov-27 19:00N 49°01' W 123°09'0 0.0
2017-Nov-27 18:30N 49°01' W 123°09'0 0.0
2017-Nov-27 18:00N 49°01' W 123°09'0 0.0
2017-Nov-27 17:30N 49°01' W 123°09'0 0.0
2017-Nov-27 17:00N 49°01' W 123°09'0 0.0
2017-Nov-27 16:30N 49°01' W 123°09'0 0.0
2017-Nov-27 16:00N 49°01' W 123°09'0 0.0
2017-Nov-27 15:30N 49°01' W 123°09'0 0.0
2017-Nov-27 15:00N 49°01' W 123°09'0 0.0
2017-Nov-27 14:18N 49°01' W 123°09'0 0.0
2017-Nov-27 14:00N 49°01' W 123°09'0 0.0
2017-Nov-27 13:30N 49°01' W 123°09'0 0.0
2017-Nov-27 13:00N 49°01' W 123°09'0 0.0
2017-Nov-27 12:30N 49°01' W 123°09'0 0.0
2017-Nov-27 11:57N 49°01' W 123°09'0 0.0
2017-Nov-27 11:05N 49°01' W 123°09'0 0.0
2017-Nov-27 11:00N 49°01' W 123°09'0 0.0
2017-Nov-27 10:30N 49°01' W 123°09'0 0.0
2017-Nov-27 10:00N 49°01' W 123°09'0 0.0
2017-Nov-27 09:30N 49°01' W 123°09'0 0.0
2017-Nov-27 09:00N 49°01' W 123°09'1 2.2
2017-Nov-27 08:30N 49°00' W 123°10'1 2.6
2017-Nov-27 08:00N 48°59' W 123°10'1 2.1
2017-Nov-27 07:30N 48°58' W 123°10'1 2.3
2017-Nov-27 06:59N 48°57' W 123°09'510.7
2017-Nov-27 06:30N 48°53' W 123°04'713.4
2017-Nov-27 06:00N 48°47' W 123°01'917.5
2017-Nov-27 05:30N 48°43' W 123°13'815.9
2017-Nov-27 05:00N 48°35' W 123°13'917.5
2017-Nov-27 04:30N 48°26' W 123°10'816.8
2017-Nov-27 04:00N 48°22' W 123°21'5 9.3
2017-Nov-27 03:30N 48°18' W 123°25'4 8.6
2017-Nov-27 03:00N 48°15' W 123°29'816.1
2017-Nov-27 02:30N 48°13' W 123°41'917.5
2017-Nov-27 02:00N 48°13' W 123°54'816.4
2017-Nov-27 01:30N 48°16' W 124°06'816.0
2017-Nov-27 01:00N 48°20' W 124°16'816.1
2017-Nov-27 00:30N 48°24' W 124°27'816.1
2017-Nov-27 00:00N 48°27' W 124°38'816.5
2017-Nov-26 23:30N 48°29' W 124°50'816.6
2017-Nov-26 23:00N 48°25' W 125°02'918.3
2017-Nov-26 22:30N 48°17' W 125°07'918.7
2017-Nov-26 22:00N 48°08' W 125°12'6916.5
2017-Nov-26 17:50N 46°59' W 125°07'616.5
2017-Nov-26 17:30N 46°54' W 125°04'917.6
2017-Nov-26 17:00N 46°45' W 125°04'1020.0
2017-Nov-26 16:30N 46°36' W 125°09'1019.7
2017-Nov-26 16:00N 46°26' W 125°13'1019.6
2017-Nov-26 15:30N 46°17' W 125°17'1019.2
2017-Nov-26 15:01N 46°08' W 125°21'918.3
2017-Nov-26 14:30N 45°59' W 125°20'918.2
2017-Nov-26 14:00N 45°50' W 125°17'918.3
2017-Nov-26 13:30N 45°41' W 125°15'918.8
2017-Nov-26 13:00N 45°32' W 125°13'1529.6
2017-Nov-26 12:30N 45°17' W 125°10'5 9.6
2017-Nov-26 11:58N 45°12' W 125°10'38821.0
2017-Nov-25 17:27N 38°48' W 123°49'920.8
2017-Nov-25 17:00N 38°40' W 123°43'1120.8
2017-Nov-25 16:29N 38°31' W 123°36'1020.8
2017-Nov-25 16:00N 38°22' W 123°30'1020.7
2017-Nov-25 15:30N 38°13' W 123°23'1020.5
2017-Nov-25 15:00N 38°05' W 123°15'1019.9
2017-Nov-25 14:30N 37°58' W 123°07'1020.1
2017-Nov-25 14:00N 37°53' W 122°56'1020.4
2017-Nov-25 13:30N 37°47' W 122°45'5 9.9
2017-Nov-25 13:00N 37°46' W 122°39'815.5
2017-Nov-25 12:30N 37°49' W 122°30'611.5
2017-Nov-25 12:00N 37°48' W 122°22'3 6.0
2017-Nov-25 11:30N 37°48' W 122°19'0 0.0
2017-Nov-25 10:59N 37°48' W 122°19'0 0.0
2017-Nov-25 10:29N 37°48' W 122°19'0 0.0
2017-Nov-25 09:59N 37°48' W 122°19'0 0.0
2017-Nov-25 09:29N 37°48' W 122°19'0 0.0
2017-Nov-25 08:59N 37°48' W 122°19'0 0.0
2017-Nov-25 08:29N 37°48' W 122°19'0 0.0
2017-Nov-25 07:59N 37°48' W 122°19'0 0.0
2017-Nov-25 07:29N 37°48' W 122°19'0 0.0
2017-Nov-25 06:59N 37°48' W 122°19'0 0.0
2017-Nov-25 06:29N 37°48' W 122°19'0 0.0
2017-Nov-25 05:59N 37°48' W 122°19'0 0.0
2017-Nov-25 05:29N 37°48' W 122°19'0 0.0
2017-Nov-25 04:59N 37°48' W 122°19'0 0.0
2017-Nov-25 04:29N 37°48' W 122°19'0 0.0
2017-Nov-25 03:59N 37°48' W 122°19'0 0.0
2017-Nov-25 03:29N 37°48' W 122°19'0 0.0
2017-Nov-25 02:59N 37°48' W 122°19'0 0.0
2017-Nov-25 02:29N 37°48' W 122°19'0 0.0
2017-Nov-25 01:59N 37°48' W 122°19'0 0.0
2017-Nov-25 01:29N 37°48' W 122°19'0 0.0
2017-Nov-25 00:59N 37°48' W 122°19'0 0.0
2017-Nov-25 00:29N 37°48' W 122°19'0 0.0
2017-Nov-24 23:59N 37°48' W 122°19'0 0.0
2017-Nov-24 23:29N 37°48' W 122°19'0 0.0
2017-Nov-24 22:59N 37°48' W 122°19'0 0.0
2017-Nov-24 22:29N 37°48' W 122°19'0 0.0
2017-Nov-24 21:59N 37°48' W 122°19'0 0.0
2017-Nov-24 21:29N 37°48' W 122°19'0 0.0
2017-Nov-24 20:59N 37°48' W 122°19'0 0.0
2017-Nov-24 20:29N 37°48' W 122°19'0 0.0
2017-Nov-24 19:59N 37°48' W 122°19'0 0.0
2017-Nov-24 19:29N 37°48' W 122°19'0 0.0
2017-Nov-24 18:59N 37°48' W 122°19'0 0.0
2017-Nov-24 18:29N 37°48' W 122°19'0 0.0
2017-Nov-24 17:59N 37°48' W 122°19'0 0.0
2017-Nov-24 17:29N 37°48' W 122°19'0 0.0
2017-Nov-24 16:59N 37°48' W 122°19'0 0.0
2017-Nov-24 16:29N 37°48' W 122°19'0 0.0
2017-Nov-24 15:59N 37°48' W 122°19'0 0.0
2017-Nov-24 15:29N 37°48' W 122°19'0 0.0
2017-Nov-24 14:59N 37°48' W 122°19'0 0.0
2017-Nov-24 14:29N 37°48' W 122°19'0 0.0
2017-Nov-24 13:59N 37°48' W 122°19'0 0.0
2017-Nov-24 13:29N 37°48' W 122°19'0 0.0
2017-Nov-24 12:59N 37°48' W 122°19'0 0.0
2017-Nov-24 12:29N 37°48' W 122°19'0 0.0
2017-Nov-24 11:59N 37°48' W 122°19'0 0.0
2017-Nov-24 11:29N 37°48' W 122°19'0 0.0
2017-Nov-24 10:59N 37°48' W 122°19'  

Dump ship's entire track history